ブラジリア の空港の天気 - METARとTAF

ブラジリア国際空港 ( SBBR / BSB ) - ブラジル ブラジリア
飛行場実況気象(Metar)
観測時間08/17 08:00 BRT (08/17 11:00 UTC)
風向・風速東 4m/s
視程10km以上
天気現象
なし
気温17℃
湿度68%
気圧1024hPa
METARSBBR 171100Z 08008KT CAVOK 17/11 Q1024
過去の天気等 Google飛行場航空写真 Wunderground天気予報

過去48時間のMETAR

飛行場予報(TAF)
発表時間: 8/17 01:00 BRT (8/17 04:00 UTC)
予報対象時間: 17日3時 BRT ~ 18日3時 BRT
風向・風速東 3m/s
視程10km以上
なし
17日11時 BRT ~ 17日13時 BRT に徐々に
風向・風速東北東 5m/s
視程10km以上
全天の4割程度の雲 雲底高度 1220m
17日16時 BRT ~ 17日18時 BRT に徐々に
風向・風速東北東 5m/s
少しの雲 雲底高度 1220m
TAF SBBR 170400Z 1706/1806 09006KT CAVOK TN15/1707Z TX27/1717Z
BECMG 1714/1716 06010KT 9999 SCT040
BECMG 1719/1721 07010KT FEW040 RMK PEO